Time;durP1;ratioP1;P1;durP2;ratioP2;P2;SDS_P1;SDS_P2;PMS_P1;PMS_P2;Temp;Humidity;BMP_temperature;BMP_pressure;BME280_temperature;BME280_humidity;BME280_pressure;Samples;Min_cycle;Max_cycle;Signal;HPM_P1;HPM_P2
2022/04/25 00:01:54;;;;;;;7.35;5.07;;;7.90;99.90;;;;;;5077734;28;20093;-73
2022/04/25 00:04:23;;;;;;;10.15;6.05;;;8.00;99.90;;;;;;5096365;28;20040;-73
2022/04/25 00:06:49;;;;;;;6.83;4.73;;;8.00;99.90;;;;;;5090580;28;20532;-73
2022/04/25 00:09:14;;;;;;;7.80;5.40;;;8.00;99.90;;;;;;5077805;28;20300;-74
2022/04/25 00:11:40;;;;;;;9.65;5.50;;;8.00;99.90;;;;;;5099738;28;20078;-72
2022/04/25 00:14:06;;;;;;;7.82;4.97;;;8.00;99.90;;;;;;5086114;28;20044;-73
2022/04/25 00:16:33;;;;;;;11.68;6.07;;;8.00;99.90;;;;;;5104649;28;20118;-74
2022/04/25 00:19:00;;;;;;;10.93;6.07;;;8.10;99.90;;;;;;5090779;28;20044;-72
2022/04/25 00:21:26;;;;;;;8.63;6.35;;;8.00;99.90;;;;;;5102700;28;20109;-72
2022/04/25 00:23:52;;;;;;;;;;;8.00;99.90;;;;;;5086919;28;20370;-73
2022/04/25 00:26:18;;;;;;;6.07;4.32;;;8.00;99.90;;;;;;5106820;28;19934;-73
2022/04/25 00:28:43;;;;;;;5.45;4.57;;;8.00;99.90;;;;;;5093566;28;20036;-74
2022/04/25 00:31:09;;;;;;;7.78;5.18;;;8.00;99.90;;;;;;5095564;28;20399;-73
2022/04/25 00:33:35;;;;;;;6.25;4.45;;;8.00;99.90;;;;;;5087535;28;20402;-73
2022/04/25 00:36:01;;;;;;;7.47;5.10;;;8.00;99.90;;;;;;5088495;28;20044;-74
2022/04/25 00:38:26;;;;;;;12.43;6.50;;;8.00;99.90;;;;;;5073989;28;20447;-73
2022/04/25 00:40:52;;;;;;;11.25;7.70;;;8.00;99.90;;;;;;5090284;28;20443;-72
2022/04/25 00:43:18;;;;;;;10.60;6.55;;;8.00;99.90;;;;;;5081702;28;20047;-72
2022/04/25 00:45:44;;;;;;;10.25;6.88;;;8.10;99.90;;;;;;5096749;28;20055;-73
2022/04/25 00:48:09;;;;;;;14.77;6.88;;;8.00;99.90;;;;;;5097943;28;20051;-77
2022/04/25 00:50:38;;;;;;;9.05;6.18;;;8.00;99.90;;;;;;5061995;28;20146;-77
2022/04/25 00:53:05;;;;;;;13.75;7.65;;;8.00;99.90;;;;;;5093518;28;20043;-78
2022/04/25 00:55:31;;;;;;;8.55;6.18;;;8.00;99.90;;;;;;5089982;28;20048;-77
2022/04/25 00:57:57;;;;;;;13.77;6.93;;;8.00;99.90;;;;;;5088292;28;20043;-77
2022/04/25 01:00:24;;;;;;;11.27;5.88;;;8.00;99.90;;;;;;5105049;28;20035;-77
2022/04/25 01:02:50;;;;;;;10.57;5.90;;;8.00;99.90;;;;;;5076524;28;20475;-77
2022/04/25 01:05:16;;;;;;;8.35;5.18;;;8.00;99.90;;;;;;5088290;28;20071;-77
2022/04/25 01:07:41;;;;;;;10.05;6.57;;;8.00;99.90;;;;;;5052635;28;20036;-77
2022/04/25 01:10:09;;;;;;;11.02;7.55;;;8.00;99.90;;;;;;5084142;28;20035;-78
2022/04/25 01:12:35;;;;;;;9.15;5.85;;;8.00;99.90;;;;;;5072055;28;20048;-77
2022/04/25 01:15:09;;;;;;;7.65;5.15;;;8.00;99.90;;;;;;5070837;28;20039;-77
2022/04/25 01:17:37;;;;;;;9.27;6.05;;;8.00;99.90;;;;;;5089973;28;20070;-77
2022/04/25 01:20:04;;;;;;;9.43;6.20;;;8.00;99.90;;;;;;5088493;28;20035;-77
2022/04/25 01:22:55;;;;;;;9.82;6.53;;;8.00;99.90;;;;;;5070933;28;20500;-77
2022/04/25 01:28:06;;;;;;;11.70;7.55;;;7.90;99.90;;;;;;5072811;28;20052;-77
2022/04/25 01:30:32;;;;;;;13.05;7.35;;;7.90;99.90;;;;;;5087751;28;20140;-77
2022/04/25 01:33:01;;;;;;;15.55;6.82;;;7.80;99.90;;;;;;5071728;28;20118;-77
2022/04/25 01:35:27;;;;;;;12.35;7.53;;;7.80;99.90;;;;;;5072408;28;20051;-78
2022/04/25 01:37:53;;;;;;;9.73;6.60;;;7.80;99.90;;;;;;5092012;28;20036;-73
2022/04/25 01:40:18;;;;;;;9.90;7.00;;;7.70;99.90;;;;;;5079586;28;20040;-73
2022/04/25 01:42:44;;;;;;;10.68;6.80;;;7.70;99.90;;;;;;5090216;28;20059;-73
2022/04/25 01:45:10;;;;;;;10.00;6.60;;;7.60;99.90;;;;;;5102915;28;20379;-73
2022/04/25 01:47:37;;;;;;;11.50;6.30;;;7.50;99.90;;;;;;5071339;28;20487;-72
2022/04/25 01:50:03;;;;;;;11.65;7.25;;;7.50;99.90;;;;;;5055210;28;20039;-76
2022/04/25 01:52:34;;;;;;;9.07;6.57;;;7.40;99.90;;;;;;5084592;28;20352;-77
2022/04/25 01:55:01;;;;;;;10.23;6.20;;;7.40;99.90;;;;;;5106995;28;20156;-77
2022/04/25 01:57:27;;;;;;;7.40;5.22;;;7.30;99.90;;;;;;5079926;28;20131;-77
2022/04/25 01:59:53;;;;;;;7.78;6.10;;;7.30;99.90;;;;;;5107151;28;20119;-77
2022/04/25 02:02:19;;;;;;;11.20;6.50;;;7.30;99.90;;;;;;5068917;28;20040;-77
2022/04/25 02:04:45;;;;;;;13.77;8.95;;;7.20;99.90;;;;;;5083654;28;20041;-77
2022/04/25 02:07:13;;;;;;;13.13;7.45;;;7.20;99.90;;;;;;5088740;28;20032;-73
2022/04/25 02:09:39;;;;;;;8.07;6.13;;;7.30;99.90;;;;;;5092988;28;20415;-73
2022/04/25 02:12:06;;;;;;;13.32;7.88;;;7.20;99.90;;;;;;5100226;28;20062;-73
2022/04/25 02:14:32;;;;;;;15.02;8.43;;;7.20;99.90;;;;;;5076566;28;20134;-74
2022/04/25 02:16:59;;;;;;;11.23;6.65;;;7.30;99.90;;;;;;5070643;28;20391;-73
2022/04/25 02:19:25;;;;;;;;;;;7.30;99.90;;;;;;5088374;28;20040;-73
2022/04/25 02:21:51;;;;;;;12.00;7.97;;;7.20;99.90;;;;;;5086599;28;19935;-73
2022/04/25 02:24:16;;;;;;;19.00;9.02;;;7.30;99.90;;;;;;5076878;28;20055;-73
2022/04/25 02:26:42;;;;;;;12.60;8.75;;;7.50;99.90;;;;;;5075664;28;20512;-73
2022/04/25 02:29:07;;;;;;;16.27;8.43;;;7.60;99.90;;;;;;5093369;28;20035;-73
2022/04/25 02:31:33;;;;;;;13.35;8.15;;;7.60;99.90;;;;;;5068573;28;20036;-73
2022/04/25 02:33:59;;;;;;;13.30;7.78;;;7.70;99.90;;;;;;5075295;28;20040;-73
2022/04/25 02:36:24;;;;;;;15.13;7.03;;;7.70;99.90;;;;;;5089043;28;20058;-72
2022/04/25 02:38:50;;;;;;;12.45;7.32;;;7.70;99.90;;;;;;5097901;28;20567;-72
2022/04/25 02:41:16;;;;;;;10.02;6.90;;;7.80;99.90;;;;;;5088300;28;20569;-72
2022/04/25 02:43:43;;;;;;;8.80;6.43;;;7.80;99.90;;;;;;5100257;28;20055;-73
2022/04/25 02:46:11;;;;;;;11.55;7.25;;;7.80;99.90;;;;;;5069397;28;20045;-73
2022/04/25 02:48:38;;;;;;;11.10;6.75;;;7.80;99.90;;;;;;5091169;28;20108;-73
2022/04/25 02:51:05;;;;;;;12.10;6.97;;;7.80;99.90;;;;;;5098158;28;20039;-74
2022/04/25 02:53:32;;;;;;;8.73;5.65;;;7.80;99.90;;;;;;5081683;28;20052;-73
2022/04/25 02:55:58;;;;;;;;;;;7.80;99.90;;;;;;5108215;28;20135;-73
2022/04/25 02:58:25;;;;;;;10.63;6.05;;;7.80;99.90;;;;;;5094799;28;19915;-74
2022/04/25 03:00:52;;;;;;;8.88;5.30;;;7.90;99.90;;;;;;5091133;28;20491;-72
2022/04/25 03:03:19;;;;;;;9.02;5.75;;;7.90;99.90;;;;;;5074048;28;20045;-73
2022/04/25 03:05:47;;;;;;;9.23;5.40;;;7.90;99.90;;;;;;5102225;28;20043;-73
2022/04/25 03:08:14;;;;;;;10.70;6.57;;;7.90;99.90;;;;;;5106317;28;20047;-73
2022/04/25 03:10:42;;;;;;;11.93;6.05;;;7.90;99.90;;;;;;5095099;28;20474;-72
2022/04/25 03:13:09;;;;;;;12.23;6.10;;;7.90;99.90;;;;;;5101920;28;20036;-72
2022/04/25 03:15:38;;;;;;;12.55;6.38;;;7.90;99.90;;;;;;5073477;28;20040;-72
2022/04/25 03:18:08;;;;;;;9.55;5.43;;;7.90;99.90;;;;;;5074284;28;20036;-73
2022/04/25 03:20:34;;;;;;;6.60;4.65;;;7.90;99.90;;;;;;5092047;28;20348;-73
2022/04/25 03:23:00;;;;;;;8.52;4.90;;;7.90;99.90;;;;;;5089223;28;20039;-73
2022/04/25 03:25:27;;;;;;;9.82;6.10;;;7.90;99.90;;;;;;5073999;28;20142;-73
2022/04/25 03:27:53;;;;;;;;;;;7.90;99.90;;;;;;5091107;28;20037;-73
2022/04/25 03:30:19;;;;;;;9.00;5.20;;;7.90;99.90;;;;;;5090577;28;19920;-73
2022/04/25 03:32:46;;;;;;;6.13;4.15;;;7.90;99.90;;;;;;5090407;28;20054;-73
2022/04/25 03:35:17;;;;;;;9.95;6.00;;;7.90;99.90;;;;;;5074768;28;20414;-73
2022/04/25 03:37:44;;;;;;;8.13;4.90;;;7.90;99.90;;;;;;5100268;28;20047;-73
2022/04/25 03:40:10;;;;;;;11.20;6.00;;;7.90;99.90;;;;;;5075868;28;20608;-73
2022/04/25 03:42:41;;;;;;;11.27;5.53;;;7.90;99.90;;;;;;5091849;28;20248;-74
2022/04/25 03:45:11;;;;;;;11.25;7.30;;;7.90;99.90;;;;;;5090772;28;20056;-73
2022/04/25 03:47:40;;;;;;;8.80;5.85;;;7.90;99.90;;;;;;5090372;28;20509;-72
2022/04/25 03:50:08;;;;;;;7.82;4.80;;;7.90;99.90;;;;;;5071727;28;20071;-73
2022/04/25 03:52:38;;;;;;;8.38;5.10;;;7.80;99.90;;;;;;5071474;28;20488;-73
2022/04/25 03:57:52;;;;;;;;;;;7.70;99.90;;;;;;5068979;28;20423;-74
2022/04/25 04:00:18;;;;;;;7.90;4.53;;;7.70;99.90;;;;;;5072002;28;19916;-74
2022/04/25 04:02:44;;;;;;;9.30;5.50;;;7.70;99.90;;;;;;5088395;28;20036;-73
2022/04/25 04:05:10;;;;;;;8.32;4.93;;;7.70;99.90;;;;;;5073246;28;20063;-73
2022/04/25 04:07:36;;;;;;;8.85;5.85;;;7.60;99.90;;;;;;5089533;28;20189;-73
2022/04/25 04:10:02;;;;;;;7.28;5.57;;;7.70;99.90;;;;;;5073142;28;20131;-73
2022/04/25 04:12:32;;;;;;;7.15;4.63;;;7.60;99.90;;;;;;5089715;28;20730;-74
2022/04/25 04:14:59;;;;;;;7.93;4.57;;;7.60;99.90;;;;;;5089848;28;20505;-74
2022/04/25 04:17:26;;;;;;;9.13;5.22;;;7.60;99.90;;;;;;5073146;28;20170;-74
2022/04/25 04:19:53;;;;;;;6.35;4.40;;;7.60;99.90;;;;;;5090868;28;20456;-74
2022/04/25 04:22:21;;;;;;;9.05;5.00;;;7.60;99.90;;;;;;5072719;28;20128;-74
2022/04/25 04:24:48;;;;;;;7.57;5.13;;;7.60;99.90;;;;;;5070628;28;20036;-73
2022/04/25 04:27:14;;;;;;;7.93;5.75;;;7.50;99.90;;;;;;5089995;28;20040;-76
2022/04/25 04:29:41;;;;;;;7.25;5.43;;;7.50;99.90;;;;;;5086048;28;20036;-77
2022/04/25 04:32:07;;;;;;;10.23;5.85;;;7.50;99.90;;;;;;5092303;28;20538;-76
2022/04/25 04:34:34;;;;;;;;;;;7.50;99.90;;;;;;5062370;28;20115;-77
2022/04/25 04:37:00;;;;;;;9.95;4.88;;;7.50;99.90;;;;;;5090153;28;19924;-77
2022/04/25 04:39:26;;;;;;;;;;;7.50;99.90;;;;;;5098857;28;20050;-77
2022/04/25 04:41:51;;;;;;;9.50;4.93;;;7.50;99.90;;;;;;5093270;28;19923;-78
2022/04/25 04:44:17;;;;;;;9.00;5.35;;;7.50;99.90;;;;;;5076653;28;20059;-77
2022/04/25 04:46:43;;;;;;;7.20;4.28;;;7.50;99.90;;;;;;5088779;28;20096;-77
2022/04/25 04:49:09;;;;;;;5.75;4.10;;;7.50;99.90;;;;;;5095175;28;20043;-77
2022/04/25 04:51:34;;;;;;;7.57;5.05;;;7.60;99.90;;;;;;5096118;28;20032;-77
2022/04/25 04:54:01;;;;;;;9.18;5.43;;;7.50;99.90;;;;;;5071661;28;20483;-76
2022/04/25 04:56:31;;;;;;;8.70;5.38;;;7.50;99.90;;;;;;5085407;28;20091;-76
2022/04/25 04:58:58;;;;;;;9.15;5.93;;;7.60;99.90;;;;;;5088925;28;20048;-75
2022/04/25 05:01:24;;;;;;;8.00;5.30;;;7.60;99.90;;;;;;5089577;28;20116;-72
2022/04/25 05:03:50;;;;;;;7.80;4.97;;;7.60;99.90;;;;;;5093643;28;20070;-72
2022/04/25 05:06:16;;;;;;;6.88;5.18;;;7.60;99.90;;;;;;5074583;28;20080;-75
2022/04/25 05:08:42;;;;;;;;;;;7.60;99.90;;;;;;5084503;28;20031;-77
2022/04/25 05:11:09;;;;;;;8.48;4.95;;;7.60;99.90;;;;;;5077058;28;20325;-76
2022/04/25 05:13:36;;;;;;;7.53;5.10;;;7.60;99.90;;;;;;5086763;28;20044;-77
2022/04/25 05:16:03;;;;;;;8.57;5.57;;;7.60;99.90;;;;;;5098700;28;20082;-77
2022/04/25 05:18:32;;;;;;;7.43;4.93;;;7.60;99.90;;;;;;5089057;28;20040;-75
2022/04/25 05:21:02;;;;;;;6.72;4.20;;;7.70;99.90;;;;;;5092621;28;20059;-76
2022/04/25 05:23:28;;;;;;;8.15;5.88;;;7.70;99.90;;;;;;5087910;28;20051;-76
2022/04/25 05:25:54;;;;;;;8.88;5.60;;;7.70;99.90;;;;;;5090048;28;20423;-76
2022/04/25 05:28:22;;;;;;;12.23;6.20;;;7.70;99.90;;;;;;5088921;28;20360;-76
2022/04/25 05:30:48;;;;;;;11.27;6.13;;;7.70;99.90;;;;;;5088628;28;20044;-75
2022/04/25 05:33:16;;;;;;;9.07;6.03;;;7.70;99.90;;;;;;5091229;28;20040;-76
2022/04/25 05:35:41;;;;;;;7.05;4.85;;;7.70;99.90;;;;;;5085046;28;20533;-76
2022/04/25 05:38:10;;;;;;;7.90;4.90;;;7.70;99.90;;;;;;5079897;28;20039;-77
2022/04/25 05:40:36;;;;;;;6.88;5.00;;;7.70;99.90;;;;;;5063545;28;20044;-73
2022/04/25 05:43:03;;;;;;;9.93;5.75;;;7.70;99.90;;;;;;5085794;28;20047;-73
2022/04/25 05:45:29;;;;;;;7.15;5.57;;;7.70;99.90;;;;;;5055952;28;20059;-72
2022/04/25 05:47:57;;;;;;;10.32;5.32;;;7.70;99.90;;;;;;5068354;28;20043;-72
2022/04/25 05:53:09;;;;;;;6.57;4.50;;;7.70;99.90;;;;;;5082710;28;20097;-73
2022/04/25 05:55:36;;;;;;;6.43;4.43;;;7.80;99.90;;;;;;5089189;28;20043;-73
2022/04/25 05:58:02;;;;;;;10.10;6.53;;;7.80;99.90;;;;;;5083145;28;20089;-73
2022/04/25 06:00:30;;;;;;;9.32;6.07;;;7.80;99.90;;;;;;5086124;28;20048;-73
2022/04/25 06:02:56;;;;;;;8.75;4.90;;;7.80;99.90;;;;;;5078752;28;20067;-73
2022/04/25 06:05:23;;;;;;;9.43;6.00;;;7.80;99.90;;;;;;5068273;28;20052;-72
2022/04/25 06:07:49;;;;;;;10.43;7.30;;;7.90;99.90;;;;;;5081961;28;20104;-73
2022/04/25 06:10:18;;;;;;;11.32;6.65;;;7.90;99.90;;;;;;5069174;28;20051;-73
2022/04/25 06:12:48;;;;;;;11.40;6.97;;;7.90;99.90;;;;;;5064897;28;20059;-73
2022/04/25 06:15:16;;;;;;;12.60;7.30;;;8.00;99.90;;;;;;5068606;28;20461;-73
2022/04/25 06:17:42;;;;;;;10.80;7.10;;;8.00;99.90;;;;;;5087815;28;20043;-73
2022/04/25 06:20:09;;;;;;;7.93;6.07;;;8.00;99.90;;;;;;5090006;28;20071;-73
2022/04/25 06:22:37;;;;;;;9.68;5.70;;;8.10;99.90;;;;;;5094814;28;20067;-74
2022/04/25 06:25:06;;;;;;;7.72;5.45;;;8.10;99.90;;;;;;5080409;28;20090;-73
2022/04/25 06:27:33;;;;;;;12.07;6.68;;;8.10;99.90;;;;;;5094279;28;20123;-73
2022/04/25 06:29:58;;;;;;;9.98;6.40;;;8.20;99.90;;;;;;5073992;28;20534;-73
2022/04/25 06:32:24;;;;;;;8.60;6.03;;;8.20;99.90;;;;;;5088043;28;20086;-73
2022/04/25 06:34:51;;;;;;;12.68;6.63;;;8.10;99.90;;;;;;5099429;28;20043;-72
2022/04/25 06:37:16;;;;;;;8.93;5.95;;;8.10;99.90;;;;;;5088103;28;20044;-72
2022/04/25 06:39:42;;;;;;;11.55;6.55;;;8.10;99.90;;;;;;5075308;28;20068;-72
2022/04/25 06:42:09;;;;;;;12.40;6.82;;;8.10;99.90;;;;;;5079313;28;20075;-73
2022/04/25 06:44:36;;;;;;;7.93;5.80;;;8.10;99.90;;;;;;5084248;28;20511;-73
2022/04/25 06:47:02;;;;;;;9.98;6.45;;;8.10;99.90;;;;;;5072851;28;20058;-72
2022/04/25 06:49:28;;;;;;;8.50;5.65;;;8.10;99.90;;;;;;5088337;28;20398;-73
2022/04/25 06:51:59;;;;;;;9.35;6.10;;;8.20;99.90;;;;;;5073807;28;20126;-73
2022/04/25 06:54:26;;;;;;;9.20;6.00;;;8.20;99.90;;;;;;5091563;28;20052;-73
2022/04/25 06:56:55;;;;;;;11.23;6.85;;;8.20;99.90;;;;;;5091497;28;20097;-76
2022/04/25 06:59:22;;;;;;;8.82;6.63;;;8.20;99.90;;;;;;5092317;28;20040;-76
2022/04/25 07:01:49;;;;;;;10.55;6.38;;;8.20;99.90;;;;;;5091017;28;20066;-75
2022/04/25 07:04:16;;;;;;;11.73;6.47;;;8.20;99.90;;;;;;5093957;28;20119;-75
2022/04/25 07:06:43;;;;;;;9.85;5.38;;;8.20;99.90;;;;;;5070818;28;20444;-76
2022/04/25 07:09:13;;;;;;;10.73;6.97;;;8.20;99.90;;;;;;5068279;28;20371;-76
2022/04/25 07:11:43;;;;;;;8.05;6.03;;;8.30;99.90;;;;;;5074731;28;20070;-76
2022/04/25 07:14:12;;;;;;;9.98;6.70;;;8.30;99.90;;;;;;5092525;28;20522;-76
2022/04/25 07:16:39;;;;;;;12.82;6.15;;;8.30;99.90;;;;;;5090800;28;20040;-75
2022/04/25 07:19:06;;;;;;;13.38;7.57;;;8.30;99.90;;;;;;5092007;28;20502;-76
2022/04/25 07:29:48;;;;;;;7.85;5.95;;;8.60;99.90;;;;;;5092465;28;20150;-75
2022/04/25 07:32:18;;;;;;;8.57;5.55;;;8.60;99.90;;;;;;5088902;28;20683;-75
2022/04/25 07:34:46;;;;;;;9.00;6.30;;;8.60;99.90;;;;;;5092501;28;20044;-76
2022/04/25 07:37:12;;;;;;;8.40;6.10;;;8.60;99.90;;;;;;5090464;28;20043;-78
2022/04/25 07:39:38;;;;;;;9.98;6.32;;;8.50;99.90;;;;;;5085346;28;20040;-75
2022/04/25 07:42:04;;;;;;;9.70;5.70;;;8.50;99.90;;;;;;5066808;28;20046;-75
2022/04/25 07:44:31;;;;;;;10.13;6.40;;;8.50;99.90;;;;;;5087495;28;20055;-75
2022/04/25 07:46:58;;;;;;;10.43;5.55;;;8.50;99.90;;;;;;5090638;28;20072;-75
2022/04/25 07:49:24;;;;;;;8.23;6.10;;;8.50;99.90;;;;;;5090574;28;20040;-75
2022/04/25 07:51:49;;;;;;;11.10;6.20;;;8.60;99.90;;;;;;5088887;28;20088;-75
2022/04/25 07:54:15;;;;;;;8.18;5.25;;;8.60;99.90;;;;;;5072153;28;20116;-75
2022/04/25 07:56:45;;;;;;;9.18;4.88;;;8.70;99.90;;;;;;5079201;28;20048;-75
2022/04/25 07:59:15;;;;;;;5.57;3.97;;;8.70;99.90;;;;;;5070887;28;21692;-73
2022/04/25 08:01:41;;;;;;;11.45;4.90;;;8.70;99.90;;;;;;5086244;28;20067;-73
2022/04/25 08:04:07;;;;;;;10.88;4.65;;;8.70;99.90;;;;;;5089502;28;20078;-73
2022/04/25 08:06:33;;;;;;;9.48;4.00;;;8.70;99.90;;;;;;5091129;28;20040;-73
2022/04/25 08:09:02;;;;;;;4.97;3.30;;;8.70;99.90;;;;;;5071917;28;20036;-73
2022/04/25 08:11:28;;;;;;;7.40;4.07;;;8.80;99.90;;;;;;5072421;28;20127;-74
2022/04/25 08:19:23;;;;;;;6.72;4.22;;;9.00;99.90;;;;;;5089220;28;20048;-75
2022/04/25 08:21:49;;;;;;;6.25;4.40;;;9.00;99.90;;;;;;5090765;28;20127;-76
2022/04/25 08:24:15;;;;;;;10.00;4.90;;;9.00;99.90;;;;;;5074510;28;20347;-76
2022/04/25 08:26:41;;;;;;;10.20;5.00;;;9.00;99.90;;;;;;5091334;28;20331;-76
2022/04/25 08:29:08;;;;;;;10.32;5.38;;;9.00;99.90;;;;;;5090450;28;20105;-75
2022/04/25 08:31:36;;;;;;;7.68;4.82;;;9.00;99.90;;;;;;5091250;28;20039;-75
2022/04/25 08:34:06;;;;;;;11.02;4.57;;;9.10;99.90;;;;;;5073409;28;20048;-76
2022/04/25 08:36:32;;;;;;;7.43;4.90;;;9.20;99.90;;;;;;5090030;28;20534;-75
2022/04/25 08:39:03;;;;;;;8.00;5.70;;;9.20;99.90;;;;;;5090836;28;20076;-76
2022/04/25 08:41:44;;;;;;;7.82;5.82;;;9.30;99.90;;;;;;5070873;28;20041;-76
2022/04/25 08:44:15;;;;;;;9.43;5.53;;;9.40;99.90;;;;;;5056777;28;20036;-76
2022/04/25 08:46:43;;;;;;;7.57;4.85;;;9.40;99.90;;;;;;5073012;28;20087;-77
2022/04/25 08:49:11;;;;;;;6.93;5.28;;;9.50;99.90;;;;;;5108202;28;20151;-76
2022/04/25 08:51:38;;;;;;;7.05;5.05;;;9.60;99.90;;;;;;5073351;28;20146;-76
2022/04/25 08:54:08;;;;;;;7.80;5.05;;;9.70;99.90;;;;;;5090314;28;20040;-75
2022/04/25 08:56:39;;;;;;;6.35;4.20;;;9.70;99.90;;;;;;5090481;28;20080;-76
2022/04/25 08:59:09;;;;;;;5.68;3.70;;;9.80;99.90;;;;;;5090358;28;20101;-77
2022/04/25 09:01:36;;;;;;;6.30;3.58;;;9.90;99.90;;;;;;5089105;28;20044;-76
2022/04/25 09:04:03;;;;;;;6.20;4.10;;;10.00;99.90;;;;;;5091026;28;20559;-76
2022/04/25 09:06:29;;;;;;;6.20;3.05;;;9.90;99.90;;;;;;5090125;28;20399;-76
2022/04/25 09:08:55;;;;;;;;;;;10.10;99.90;;;;;;5089933;28;20479;-76
2022/04/25 09:14:09;;;;;;;4.90;2.95;;;10.10;99.90;;;;;;5090188;28;20044;-74
2022/04/25 09:16:35;;;;;;;6.03;3.22;;;10.20;99.90;;;;;;5070917;28;20135;-73
2022/04/25 09:19:01;;;;;;;6.20;2.80;;;10.30;99.90;;;;;;5069275;28;20400;-73
2022/04/25 09:21:27;;;;;;;6.05;3.13;;;10.40;99.90;;;;;;5090024;28;20105;-73
2022/04/25 09:23:53;;;;;;;6.47;2.90;;;10.50;99.90;;;;;;5070165;28;20495;-73
2022/04/25 09:26:27;;;;;;;11.55;4.13;;;10.60;99.90;;;;;;5089666;28;20077;-73
2022/04/25 09:28:54;;;;;;;4.13;2.92;;;10.60;99.90;;;;;;5088523;28;20097;-73
2022/04/25 09:31:22;;;;;;;4.80;2.85;;;10.60;99.90;;;;;;5072551;28;20062;-73
2022/04/25 09:33:48;;;;;;;5.38;3.13;;;10.60;99.90;;;;;;5088518;28;20044;-73
2022/04/25 09:36:15;;;;;;;5.63;3.17;;;10.60;99.90;;;;;;5089821;28;20105;-73
2022/04/25 09:38:42;;;;;;;5.55;3.30;;;10.50;99.90;;;;;;5088283;28;20123;-74
2022/04/25 09:41:17;;;;;;;5.32;3.13;;;10.40;99.90;;;;;;5089414;28;20483;-74
2022/04/25 09:43:44;;;;;;;6.10;2.95;;;10.50;99.90;;;;;;5071719;28;20093;-73
2022/04/25 09:46:12;;;;;;;5.65;3.00;;;10.60;99.90;;;;;;5071279;28;20491;-73
2022/04/25 09:48:41;;;;;;;5.00;2.50;;;10.60;99.90;;;;;;5054287;28;20040;-74
2022/04/25 09:51:09;;;;;;;4.57;2.38;;;10.80;99.90;;;;;;5071236;28;20127;-74
2022/04/25 09:53:49;;;;;;;3.78;2.45;;;10.90;99.90;;;;;;5088695;28;20063;-74
2022/04/25 09:56:18;;;;;;;4.00;2.65;;;11.00;99.90;;;;;;5088345;28;20044;-73
2022/04/25 09:58:45;;;;;;;4.07;2.85;;;11.00;99.90;;;;;;5089235;28;20040;-73
2022/04/25 10:01:12;;;;;;;5.95;3.30;;;11.10;99.90;;;;;;5070973;28;20048;-74
2022/04/25 10:03:38;;;;;;;5.65;3.30;;;11.20;99.90;;;;;;5056054;28;20093;-74
2022/04/25 10:06:06;;;;;;;3.33;2.47;;;11.30;99.90;;;;;;5086226;28;20054;-75
2022/04/25 10:08:35;;;;;;;5.05;2.90;;;11.30;99.90;;;;;;5072797;28;20040;-74
2022/04/25 10:11:06;;;;;;;3.15;2.60;;;11.50;99.90;;;;;;5071343;28;20487;-73
2022/04/25 10:13:33;;;;;;;3.58;2.50;;;11.70;99.90;;;;;;5084544;28;20147;-74
2022/04/25 10:16:00;;;;;;;4.45;2.70;;;11.90;99.90;;;;;;5088035;28;20051;-73
2022/04/25 10:18:27;;;;;;;4.35;2.63;;;12.40;99.90;;;;;;5070667;28;20066;-73
2022/04/25 10:20:53;;;;;;;4.13;2.50;;;13.00;99.90;;;;;;5087630;28;20036;-74
2022/04/25 10:23:19;;;;;;;3.90;2.28;;;13.20;99.90;;;;;;5072850;28;20047;-73
2022/04/25 10:25:57;;;;;;;3.60;2.40;;;13.20;99.90;;;;;;5087934;28;20047;-74
2022/04/25 10:28:37;;;;;;;3.83;2.30;;;13.10;99.90;;;;;;5086996;28;20062;-73
2022/04/25 10:31:28;;;;;;;4.55;2.92;;;12.90;99.90;;;;;;5087617;28;20050;-73
2022/04/25 10:33:58;;;;;;;5.15;3.05;;;12.60;99.90;;;;;;5071227;28;20028;-73
2022/04/25 10:36:38;;;;;;;4.38;2.60;;;12.50;99.90;;;;;;5089098;28;20142;-74
2022/04/25 10:39:12;;;;;;;4.45;2.47;;;12.40;99.90;;;;;;5087432;28;20104;-73
2022/04/25 10:44:25;;;;;;;4.25;3.05;;;12.40;99.90;;;;;;5086290;28;20512;-74
2022/04/25 10:47:07;;;;;;;3.88;2.60;;;12.40;99.90;;;;;;5088893;28;20080;-73
2022/04/25 10:49:36;;;;;;;4.10;2.60;;;12.40;99.90;;;;;;5087858;28;20111;-74
2022/04/25 10:52:26;;;;;;;4.00;2.42;;;12.40;99.90;;;;;;5095737;28;20048;-75
2022/04/25 10:55:10;;;;;;;4.82;2.00;;;12.40;99.90;;;;;;5073837;28;20055;-76
2022/04/25 10:57:36;;;;;;;6.13;2.58;;;12.50;99.90;;;;;;5077549;28;20044;-76
2022/04/25 11:00:23;;;;;;;4.97;2.38;;;12.50;99.90;;;;;;5089762;28;20044;-76
2022/04/25 11:03:25;;;;;;;4.95;2.80;;;12.50;99.90;;;;;;5089292;28;20058;-76
2022/04/25 11:05:59;;;;;;;4.57;2.55;;;12.60;99.90;;;;;;5066239;28;20060;-77
2022/04/25 11:08:28;;;;;;;4.13;2.58;;;12.70;99.90;;;;;;5092543;28;20363;-76
2022/04/25 11:10:57;;;;;;;4.68;2.78;;;12.70;99.90;;;;;;5092994;28;20040;-76
2022/04/25 11:13:28;;;;;;;4.20;2.33;;;12.70;99.90;;;;;;5076184;28;20073;-76
2022/04/25 11:15:59;;;;;;;4.75;2.75;;;12.80;99.90;;;;;;5089679;28;20050;-76
2022/04/25 11:18:38;;;;;;;4.70;2.90;;;12.90;99.90;;;;;;5092418;28;20059;-76
2022/04/25 11:21:05;;;;;;;3.80;2.30;;;13.00;99.90;;;;;;5091865;28;20166;-77
2022/04/25 11:23:32;;;;;;;3.22;2.08;;;13.00;99.90;;;;;;5092700;28;20127;-77
2022/04/25 11:26:00;;;;;;;3.55;2.42;;;13.20;99.90;;;;;;5073986;28;20035;-76
2022/04/25 11:28:26;;;;;;;3.78;2.65;;;13.30;99.90;;;;;;5092450;28;20449;-76
2022/04/25 11:31:23;;;;;;;6.85;2.95;;;13.40;99.90;;;;;;5090201;28;20150;-76
2022/04/25 11:33:51;;;;;;;4.38;2.72;;;13.50;99.90;;;;;;5108974;28;20083;-76
2022/04/25 11:36:19;;;;;;;4.32;2.67;;;13.40;99.90;;;;;;5091011;28;20040;-76
2022/04/25 11:41:48;;;;;;;2.65;2.20;;;13.60;99.90;;;;;;5057191;28;20067;-77
2022/04/25 11:44:13;;;;;;;4.45;2.65;;;13.60;99.90;;;;;;5071869;28;20436;-77
2022/04/25 11:46:40;;;;;;;5.28;2.72;;;13.80;99.90;;;;;;5087863;28;20044;-77
2022/04/25 11:49:09;;;;;;;3.65;2.30;;;13.70;99.90;;;;;;5074989;28;20043;-76
2022/04/25 11:51:40;;;;;;;5.82;2.80;;;13.70;99.90;;;;;;5090848;28;20082;-76
2022/04/25 11:54:10;;;;;;;4.43;2.85;;;13.80;99.90;;;;;;5091880;28;20124;-76
2022/04/25 11:56:39;;;;;;;6.30;2.95;;;13.70;99.90;;;;;;5086811;28;20097;-76
2022/04/25 11:59:15;;;;;;;6.10;3.53;;;13.70;99.90;;;;;;5091800;28;20493;-76
2022/04/25 12:01:48;;;;;;;8.82;3.50;;;13.70;99.90;;;;;;5091443;28;20086;-76
2022/04/25 12:04:27;;;;;;;9.38;3.70;;;13.60;99.90;;;;;;5091865;28;20119;-76
2022/04/25 12:06:55;;;;;;;7.97;3.33;;;13.50;99.90;;;;;;5059597;28;20119;-76
2022/04/25 12:17:41;;;;;;;6.13;3.20;;;13.40;99.90;;;;;;5091398;28;20075;-74
2022/04/25 12:20:09;;;;;;;6.25;3.65;;;13.30;99.90;;;;;;5089965;28;20360;-73
2022/04/25 12:22:39;;;;;;;6.40;3.60;;;13.20;99.90;;;;;;5074040;28;20087;-74
2022/04/25 12:25:34;;;;;;;5.90;3.50;;;13.10;99.90;;;;;;5088633;28;20079;-73
2022/04/25 12:28:03;;;;;;;7.28;3.90;;;13.00;99.90;;;;;;5089174;28;20136;-73
2022/04/25 12:30:32;;;;;;;4.15;2.83;;;13.00;99.90;;;;;;5089943;28;20597;-73
2022/04/25 12:33:08;;;;;;;6.88;3.97;;;13.00;99.90;;;;;;5074545;28;20047;-74
2022/04/25 12:35:35;;;;;;;6.18;3.67;;;12.90;99.90;;;;;;5089315;28;20046;-74
2022/04/25 12:38:05;;;;;;;6.32;4.03;;;12.90;99.90;;;;;;5090926;28;20483;-73
2022/04/25 12:40:32;;;;;;;6.00;3.40;;;12.90;99.90;;;;;;5087992;28;20114;-74
2022/04/25 12:42:58;;;;;;;5.55;4.05;;;12.90;99.90;;;;;;5089198;28;20051;-73
2022/04/25 12:45:24;;;;;;;5.43;3.97;;;12.90;99.90;;;;;;5089025;28;20539;-73
2022/04/25 12:47:55;;;;;;;7.53;3.80;;;12.90;99.90;;;;;;5056745;28;20048;-74
2022/04/25 12:50:44;;;;;;;6.03;3.70;;;12.90;99.90;;;;;;5088973;28;20040;-73
2022/04/25 12:53:10;;;;;;;7.53;3.53;;;13.00;99.90;;;;;;5089043;28;20078;-73
2022/04/25 12:55:48;;;;;;;5.15;3.03;;;13.00;99.90;;;;;;5087939;28;20052;-74
2022/04/25 12:58:16;;;;;;;6.10;3.65;;;13.20;99.90;;;;;;5070006;28;20467;-73
2022/04/25 13:00:47;;;;;;;7.00;4.00;;;13.30;99.90;;;;;;5046865;28;20043;-74
2022/04/25 13:03:13;;;;;;;3.80;2.72;;;13.40;99.90;;;;;;5072454;28;20048;-73
2022/04/25 13:05:39;;;;;;;5.63;3.78;;;13.50;99.90;;;;;;5088816;28;20105;-74
2022/04/25 13:08:06;;;;;;;4.75;3.20;;;13.70;99.90;;;;;;5088379;28;20058;-74
2022/04/25 13:10:31;;;;;;;6.25;3.72;;;14.30;99.90;;;;;;5090057;28;20075;-73
2022/04/25 13:12:58;;;;;;;4.50;3.40;;;14.80;99.90;;;;;;5088962;28;20110;-73
2022/04/25 13:15:29;;;;;;;;;;;15.40;99.90;;;;;;5090515;28;20047;-73
2022/04/25 13:17:55;;;;;;;4.35;3.47;;;15.40;99.90;;;;;;5088854;28;19987;-74
2022/04/25 13:20:21;;;;;;;;;;;15.20;99.90;;;;;;5090063;28;20461;-75
2022/04/25 13:22:48;;;;;;;6.13;3.67;;;15.20;99.90;;;;;;5089730;28;19982;-74
2022/04/25 13:25:15;;;;;;;5.97;3.13;;;15.40;99.90;;;;;;5088853;28;20126;-74
2022/04/25 13:27:41;;;;;;;7.00;3.55;;;15.80;99.50;;;;;;5088820;28;20048;-73
2022/04/25 13:30:08;;;;;;;;;;;15.70;99.50;;;;;;5090247;28;20165;-74
2022/04/25 13:32:35;;;;;;;5.18;3.60;;;15.40;99.10;;;;;;5072019;28;19969;-74
2022/04/25 13:35:01;;;;;;;6.32;3.78;;;15.10;99.90;;;;;;5088710;28;20147;-74
2022/04/25 13:37:29;;;;;;;5.20;3.10;;;15.50;99.90;;;;;;5088805;28;20048;-73
2022/04/25 13:39:55;;;;;;;7.53;4.10;;;16.10;99.90;;;;;;5089564;28;20036;-74